Terminal Aerodrome Forecast
Issued by NWS

Home | Current Version | Previous Version | Text Only | Print | Product List | Glossary On
Versions: 1 2 3 4 5 6 7 8 9 10 11 12 13 14 15 16 17 18 19 20 21
000
FTUS41 KPBZ 191100
TAFFKL
TAF
KFKL 191122Z 1912/2012 12003KT 1SM BR BKN002
      TEMPO 1912/1913 1/4SM FG OVC002
     FM191300 13005KT P6SM BKN050
      TEMPO 1913/1914 5SM BR SCT005
      AMD LTD TO CLD VIS AND WIND=

USA.gov is the U.S. government's official web portal to all federal, state and local government web resources and services.